METAR Data
IDs: Format: Raw Decoded Include TAF

Data at: 0012 UTC 28 Feb 2021

VTUK 280000Z 07002KT 5000 BR NSC 20/16 Q1009 NOSIG
VTUK 272300Z 00000KT 5000 BR NSC 21/16 Q1008 NOSIG
VTUK 272200Z 09003KT 5000 BR NSC 22/16 Q1007 NOSIG
VTUK 272100Z VRB02KT 6000 NSC 23/14 Q1007 NOSIG
VTUK 272000Z 12003KT 070V210 6000 NSC 22/15 Q1007 NOSIG
VTUK 271900Z 29002KT 6000 NSC 24/13 Q1007 NOSIG
VTUK 271800Z 30004KT 6000 NSC 24/14 Q1008 NOSIG
VTUK 271700Z 16002KT 7000 NSC 27/14 Q1008 NOSIG
VTUK 271600Z 11003KT 7000 NSC 26/14 Q1008 NOSIG
VTUK 271500Z 19003KT 7000 NSC 28/13 Q1008 NOSIG
VTUK 271400Z 25004KT 7000 NSC 29/13 Q1007 NOSIG
VTUK 271300Z VRB02KT 7000 NSC 30/12 Q1006 NOSIG
VTUK 271200Z 18003KT 7000 NSC 31/12 Q1005 NOSIG
VTUK 271100Z 18004KT 8000 NSC 34/12 Q1005 NOSIG
VTUK 271000Z 19008KT 9000 FEW030 BKN100 35/11 Q1004 NOSIG
VTUK 270900Z 18010KT 150V210 9000 FEW030 BKN100 36/11 Q1004 NOSIG
VTUK 270800Z 18008KT 140V220 9000 FEW030 SCT100 36/11 Q1004 NOSIG
VTUK 270700Z 19006KT 160V220 8000 NSC 36/13 Q1006 NOSIG
VTUK 270600Z 22009KT 110V260 7000 NSC 35/12 Q1007 NOSIG
VTUK 270500Z 19006KT 160V230 7000 NSC 34/14 Q1008 NOSIG
VTUK 270400Z 20003KT 110V270 7000 NSC 33/13 Q1009 NOSIG
VTUK 270300Z 21003KT 170V260 7000 NSC 30/14 Q1009 NOSIG
VTUK 270200Z 22003KT 160V270 5000 HZ NSC 26/15 Q1009 NOSIG
VTUK 270100Z VRB02KT 4000 BR NSC 22/15 Q1008 BECMG TL0200 6000 NSW
VTUK 270000Z VRB02KT 4000 BR NSC 21/14 Q1007 BECMG TL0200 6000 NSW
VTUK 262300Z 20004KT 7000 NSC 23/15 Q1006 BECMG TL0030 4000 BR
VTUK 262200Z VRB02KT 7000 NSC 22/14 Q1005 NOSIG
VTUK 262100Z VRB03KT 7000 NSC 22/15 Q1005 NOSIG
VTUK 262000Z 00000KT 7000 NSC 24/15 Q1005 NOSIG
VTUK 261900Z VRB02KT 7000 NSC 24/15 Q1005 NOSIG
VTUK 261800Z VRB05KT 8000 NSC 27/13 Q1005 NOSIG
VTUK 261700Z 32004KT 280V340 8000 NSC 27/15 Q1006 NOSIG
VTUK 261600Z 29004KT 8000 NSC 27/14 Q1006 NOSIG
VTUK 261500Z 19003KT 8000 NSC 27/14 Q1006 NOSIG
VTUK 261400Z 19002KT 8000 NSC 29/15 Q1005 NOSIG
VTUK 261300Z 13002KT 8000 NSC 31/16 Q1005 NOSIG

VTUD 280000Z 00000KT 2500 BR NSC 19/18 Q1009 NOSIG
VTUD 271300Z 07003KT 8000 NSC 29/16 Q1005 NOSIG
VTUD 271200Z VRB02KT CAVOK 29/15 Q1005 NOSIG
VTUD 271100Z 02004KT 340V040 CAVOK 34/13 Q1004 NOSIG
VTUD 271000Z 06003KT 020V100 CAVOK 35/11 Q1004 NOSIG
VTUD 270900Z 16005KT 110V180 8000 NSC 36/11 Q1004 NOSIG
VTUD 270800Z VRB04KT 8000 NSC 36/11 Q1005 NOSIG
VTUD 270700Z 22005KT 110V270 8000 NSC 36/11 Q1006 NOSIG
VTUD 270600Z VRB04KT CAVOK 35/14 Q1007 NOSIG
VTUD 270500Z VRB02KT CAVOK 33/15 Q1008 NOSIG
VTUD 270400Z 34003KT 280V070 7000 NSC 30/17 Q1009 NOSIG
VTUD 270300Z 33005KT 300V010 6000 NSC 27/16 Q1009 NOSIG
VTUD 270200Z 30004KT 270V330 4000 NSC 26/15 Q1008 BECMG TL0400 6000
VTUD 270100Z 00000KT 3300 BR NSC 21/16 Q1008 NOSIG
VTUD 270000Z 17004KT 3500 BR NSC 19/16 Q1007 NOSIG
VTUD 261300Z 00000KT CAVOK 28/15 Q1004 NOSIG

VTUL 280000Z 00000KT 6000 NSC 14/13 Q1010 NOSIG
VTUL 272300Z 00000KT 6000 NSC 15/13 Q1009 NOSIG
VTUL 271200Z VRB02KT 8000 NSC 26/15 Q1006 NOSIG
VTUL 271100Z 00000KT 7000 FEW030 31/13 Q1005 NOSIG
VTUL 271000Z 30005KT 250V350 7000 FEW030 35/12 Q1004 NOSIG
VTUL 270900Z 24007KT 8000 SCT030 37/04 Q1004 NOSIG
VTUL 270800Z VRB01KT 7000 SCT030 35/11 Q1004 NOSIG
VTUL 270700Z VRB04KT 6000 FEW030 35/10 Q1005 NOSIG
VTUL 270600Z VRB03KT 6000 FEW030 34/11 Q1007 NOSIG
VTUL 270500Z VRB05KT 6000 NSC 32/12 Q1008 NOSIG
VTUL 270400Z 02004KT 330V070 6000 NSC 30/12 Q1009 NOSIG
VTUL 270300Z 04003KT 360V090 6000 NSC 26/14 Q1010 NOSIG
VTUL 270200Z 04003KT 010V070 6000 NSC 21/15 Q1009 NOSIG
VTUL 270100Z 00000KT 6000 NSC 19/15 Q1008 NOSIG
VTUL 270000Z VRB02KT 7000 SCT030 14/13 Q1007 NOSIG
VTUL 262300Z VRB01KT 9000 BKN030 14/12 Q1006 NOSIG

VTUI 280000Z 13008KT 7000 FEW025 SCT100 24/20 Q1009 NOSIG
VTUI 271200Z 00000KT 6000 NSC 26/21 Q1005 NOSIG
VTUI 271100Z 00000KT 4000 HZ NSC 30/20 Q1005 NOSIG
VTUI 271000Z 03001KT 5000 HZ NSC 34/16 Q1004 NOSIG
VTUI 270900Z 03003KT 360V080 5000 HZ FEW045 35/16 Q1004 NOSIG
VTUI 270800Z 07004KT 340V150 5000 HZ FEW045 34/16 Q1004 NOSIG
VTUI 270700Z 06006KT 020V090 5000 HZ SCT045 34/17 Q1005 NOSIG
VTUI 270600Z 07008KT 040V130 5000 HZ NSC 33/17 Q1006 NOSIG
VTUI 270500Z 11007KT 080V140 4000 HZ NSC 31/18 Q1008 NOSIG
VTUI 270400Z 11008KT 4000 HZ NSC 30/19 Q1008 NOSIG
VTUI 270300Z 13007KT 090V160 3000 HZ NSC 28/20 Q1009 NOSIG
VTUI 270200Z 12006KT 2500 BR NSC 26/20 Q1008 BECMG 4000 BR
VTUI 270100Z 12006KT 080V150 2500 BR NSC 25/19 Q1007 BECMG 1000 BR
VTUI 270000Z 11005KT 3000 BR NSC 24/19 Q1006 BECMG 1000 BR

VTUW 280000Z 17004KT 140V210 6000 FEW030 SCT100 23/20 Q1010 NOSIG
VTUW 271300Z 12009KT 7000 NSC 28/21 Q1007 NOSIG
VTUW 271200Z VRB02KT 6000 NSC 29/18 Q1006 NOSIG
VTUW 271100Z 10005KT 5000 HZ NSC 32/17 Q1005 NOSIG
VTUW 271000Z 13005KT 080V180 5000 HZ NSC 34/17 Q1005 NOSIG
VTUW 270900Z 15005KT 110V190 5000 HZ NSC 35/17 Q1004 NOSIG
VTUW 270800Z VRB04KT 5000 HZ NSC 34/17 Q1005 NOSIG
VTUW 270700Z 15008KT 120V200 5000 HZ NSC 34/17 Q1006 NOSIG
VTUW 270600Z VRB04KT 5000 HZ NSC 33/19 Q1007 NOSIG
VTUW 270500Z 14010KT 090V190 5000 HZ NSC 32/19 Q1008 NOSIG
VTUW 270400Z 13011KT 090V160 5000 HZ NSC 31/20 Q1009 NOSIG
VTUW 270300Z 13015KT 5000 HZ NSC 30/20 Q1009 NOSIG
VTUW 270200Z 13012KT 4000 HZ NSC 29/20 Q1009 NOSIG
VTUW 270100Z 12010KT 4000 BR NSC 27/20 Q1007 BECMG TL0200 5000 HZ
VTUW 270000Z 13008KT 3000 BR FEW040 SCT100 25/20 Q1007 BECMG TL0200 5000 HZ
VTUW 261300Z 00000KT 7000 FEW035 29/17 Q1004 NOSIG